Time,TemperatureF,DewpointF,PressureIn,WindDirection,WindDirectionDegrees,WindSpeedMPH,WindSpeedGustMPH,Humidity,HourlyPrecipIn,Conditions,Clouds,dailyrainin,SoftwareType,DateUTC
2013-08-14 00:11:00,59.5,53.0,29.96,SW,236,1.0,-999.0,80,-99.99,,,0.00,weatherlink.com 1.10,2013-08-14 07:11:00,
2013-08-14 00:26:00,59.5,53.0,29.96,SSW,196,0.0,-999.0,79,-99.99,,,0.00,weatherlink.com 1.10,2013-08-14 07:26:00,
2013-08-14 00:41:00,59.3,53.0,29.96,SSE,163,0.0,-999.0,80,-99.99,,,0.00,weatherlink.com 1.10,2013-08-14 07:41:00,
2013-08-14 00:56:00,58.9,53.0,29.96,SSE,163,0.0,-999.0,80,-99.99,,,0.00,weatherlink.com 1.10,2013-08-14 07:56:00,
2013-08-14 01:11:00,58.6,53.0,29.96,SSW,201,0.0,-999.0,81,-99.99,,,0.00,weatherlink.com 1.10,2013-08-14 08:11:00,
2013-08-14 01:26:00,58.1,53.0,29.96,South,173,0.0,-999.0,82,-99.99,,,0.00,weatherlink.com 1.10,2013-08-14 08:26:00,
2013-08-14 01:41:00,58.1,53.0,29.96,South,173,0.0,-999.0,82,-99.99,,,0.00,weatherlink.com 1.10,2013-08-14 08:41:00,
2013-08-14 01:56:00,58.1,53.0,29.95,WSW,240,0.0,-999.0,82,-99.99,,,0.00,weatherlink.com 1.10,2013-08-14 08:56:00,
2013-08-14 02:11:00,58.0,53.0,29.95,East,92,0.0,-999.0,82,-99.99,,,0.00,weatherlink.com 1.10,2013-08-14 09:11:00,
2013-08-14 02:26:00,58.1,53.0,29.95,SE,146,0.0,-999.0,82,-99.99,,,0.00,weatherlink.com 1.10,2013-08-14 09:26:00,
2013-08-14 02:41:00,58.0,53.0,29.95,WSW,246,0.0,-999.0,83,-99.99,,,0.00,weatherlink.com 1.10,2013-08-14 09:41:00,
2013-08-14 02:56:00,57.8,53.0,29.95,SSE,160,0.0,-999.0,84,-99.99,,,0.00,weatherlink.com 1.10,2013-08-14 09:56:00,
2013-08-14 03:12:00,57.6,53.0,29.95,West,263,0.0,-999.0,84,-99.99,,,0.00,weatherlink.com 1.10,2013-08-14 10:12:00,
2013-08-14 03:26:00,57.5,53.0,29.95,SE,141,3.0,-999.0,84,-99.99,,,0.00,weatherlink.com 1.10,2013-08-14 10:26:00,
2013-08-14 03:41:00,57.5,53.0,29.95,SE,140,0.0,-999.0,85,-99.99,,,0.00,weatherlink.com 1.10,2013-08-14 10:41:00,
2013-08-14 03:56:00,57.5,53.0,29.95,South,180,0.0,-999.0,86,-99.99,,,0.00,weatherlink.com 1.10,2013-08-14 10:56:00,
2013-08-14 04:11:00,57.2,53.0,29.95,South,190,0.0,-999.0,87,-99.99,,,0.00,weatherlink.com 1.10,2013-08-14 11:11:00,
2013-08-14 04:26:00,56.9,53.0,29.95,SSE,155,0.0,-999.0,87,-99.99,,,0.00,weatherlink.com 1.10,2013-08-14 11:26:00,
2013-08-14 04:41:00,56.9,53.0,29.95,SSW,200,3.0,-999.0,88,-99.99,,,0.00,weatherlink.com 1.10,2013-08-14 11:41:00,
2013-08-14 04:56:00,57.2,54.0,29.95,SSE,155,1.0,-999.0,90,-99.99,,,0.00,weatherlink.com 1.10,2013-08-14 11:56:00,
2013-08-14 05:11:00,57.2,54.0,29.95,SE,128,1.0,-999.0,90,-99.99,,,0.00,weatherlink.com 1.10,2013-08-14 12:11:00,
2013-08-14 05:27:00,57.3,55.0,29.95,SE,143,0.0,-999.0,90,-99.99,,,0.00,weatherlink.com 1.10,2013-08-14 12:27:00,
2013-08-14 05:41:00,57.5,55.0,29.95,SSW,196,0.0,-999.0,90,-99.99,,,0.00,weatherlink.com 1.10,2013-08-14 12:41:00,
2013-08-14 05:56:00,57.6,55.0,29.95,SW,229,0.0,-999.0,90,-99.99,,,0.00,weatherlink.com 1.10,2013-08-14 12:56:00,
2013-08-14 06:12:00,57.8,55.0,29.95,SSE,157,1.0,-999.0,89,-99.99,,,0.00,weatherlink.com 1.10,2013-08-14 13:12:00,
2013-08-14 06:26:00,57.6,54.0,29.95,South,178,0.0,-999.0,88,-99.99,,,0.00,weatherlink.com 1.10,2013-08-14 13:26:00,
2013-08-14 06:41:00,57.6,54.0,29.96,South,176,1.0,-999.0,88,-99.99,,,0.00,weatherlink.com 1.10,2013-08-14 13:41:00,
2013-08-14 06:56:00,57.6,54.0,29.96,SSE,160,0.0,-999.0,88,-99.99,,,0.00,weatherlink.com 1.10,2013-08-14 13:56:00,
2013-08-14 07:12:00,57.0,54.0,29.96,SW,234,0.0,-999.0,88,-99.99,,,0.00,weatherlink.com 1.10,2013-08-14 14:12:00,
2013-08-14 07:27:00,57.2,54.0,29.96,WSW,247,0.0,-999.0,89,-99.99,,,0.00,weatherlink.com 1.10,2013-08-14 14:27:00,
2013-08-14 07:42:00,57.2,54.0,29.96,SE,128,0.0,-999.0,89,-99.99,,,0.00,weatherlink.com 1.10,2013-08-14 14:42:00,
2013-08-14 07:57:00,57.5,54.0,29.96,SSE,148,0.0,-999.0,88,-99.99,,,0.00,weatherlink.com 1.10,2013-08-14 14:57:00,
2013-08-14 08:12:00,58.7,55.0,29.96,SSE,163,0.0,-999.0,87,-99.99,,,0.00,weatherlink.com 1.10,2013-08-14 15:12:00,
2013-08-14 08:27:00,59.6,54.0,29.97,South,188,1.0,-999.0,83,-99.99,,,0.00,weatherlink.com 1.10,2013-08-14 15:27:00,
2013-08-14 08:42:00,60.4,55.0,29.97,SSW,207,0.0,-999.0,81,-99.99,,,0.00,weatherlink.com 1.10,2013-08-14 15:42:00,
2013-08-14 08:57:00,62.0,55.0,29.97,South,176,1.0,-999.0,77,-99.99,,,0.00,weatherlink.com 1.10,2013-08-14 15:57:00,
2013-08-14 09:12:00,62.7,54.0,29.98,SW,222,0.0,-999.0,74,-99.99,,,0.00,weatherlink.com 1.10,2013-08-14 16:12:00,
2013-08-14 09:42:00,64.5,55.0,29.98,SE,134,0.0,-999.0,71,-99.99,,,0.00,weatherlink.com 1.10,2013-08-14 16:42:00,
2013-08-14 09:57:00,65.5,55.0,29.98,SW,236,3.0,-999.0,68,-99.99,,,0.00,weatherlink.com 1.10,2013-08-14 16:57:00,
2013-08-14 10:12:00,66.4,54.0,29.98,SW,234,4.0,-999.0,64,-99.99,,,0.00,weatherlink.com 1.10,2013-08-14 17:12:00,
2013-08-14 10:27:00,66.9,54.0,29.98,SSW,196,0.0,-999.0,64,-99.99,,,0.00,weatherlink.com 1.10,2013-08-14 17:27:00,
2013-08-14 10:42:00,68.1,55.0,29.98,WSW,253,1.0,-999.0,63,-99.99,,,0.00,weatherlink.com 1.10,2013-08-14 17:42:00,
2013-08-14 10:57:00,68.9,55.0,29.98,South,169,1.0,-999.0,61,-99.99,,,0.00,weatherlink.com 1.10,2013-08-14 17:57:00,
2013-08-14 11:12:00,69.8,56.0,29.98,SSW,194,0.0,-999.0,61,-99.99,,,0.00,weatherlink.com 1.10,2013-08-14 18:12:00,
2013-08-14 11:27:00,69.9,55.0,29.98,WSW,253,1.0,-999.0,60,-99.99,,,0.00,weatherlink.com 1.10,2013-08-14 18:27:00,
2013-08-14 11:43:00,70.6,55.0,29.98,West,259,0.0,-999.0,58,-99.99,,,0.00,weatherlink.com 1.10,2013-08-14 18:43:00,
2013-08-14 11:57:00,71.1,55.0,29.98,WSW,247,0.0,-999.0,58,-99.99,,,0.00,weatherlink.com 1.10,2013-08-14 18:57:00,
2013-08-14 12:12:00,71.8,55.0,29.98,SW,229,2.0,-999.0,56,-99.99,,,0.00,weatherlink.com 1.10,2013-08-14 19:12:00,
2013-08-14 12:27:00,72.0,56.0,29.98,SE,138,0.0,-999.0,57,-99.99,,,0.00,weatherlink.com 1.10,2013-08-14 19:27:00,
2013-08-14 12:42:00,72.3,57.0,29.98,WNW,295,0.0,-999.0,58,-99.99,,,0.00,weatherlink.com 1.10,2013-08-14 19:42:00,
2013-08-14 12:57:00,72.5,57.0,29.97,SW,215,0.0,-999.0,58,-99.99,,,0.00,weatherlink.com 1.10,2013-08-14 19:57:00,
2013-08-14 13:12:00,72.0,56.0,29.97,WNW,288,0.0,-999.0,58,-99.99,,,0.00,weatherlink.com 1.10,2013-08-14 20:12:00,
2013-08-14 13:27:00,72.3,56.0,29.97,SW,221,0.0,-999.0,57,-99.99,,,0.00,weatherlink.com 1.10,2013-08-14 20:27:00,
2013-08-14 13:58:00,71.5,56.0,29.96,ESE,121,0.0,-999.0,58,-99.99,,,0.00,weatherlink.com 1.10,2013-08-14 20:58:00,
2013-08-14 14:13:00,71.1,56.0,29.96,South,185,0.0,-999.0,59,-99.99,,,0.00,weatherlink.com 1.10,2013-08-14 21:13:00,
2013-08-14 14:28:00,71.8,56.0,29.96,WSW,253,2.0,-999.0,57,-99.99,,,0.00,weatherlink.com 1.10,2013-08-14 21:28:00,
2013-08-14 14:43:00,73.0,55.0,29.96,South,182,1.0,-999.0,54,-99.99,,,0.00,weatherlink.com 1.10,2013-08-14 21:43:00,
2013-08-14 14:58:00,73.9,56.0,29.95,WSW,244,0.0,-999.0,54,-99.99,,,0.00,weatherlink.com 1.10,2013-08-14 21:58:00,
2013-08-14 15:13:00,74.9,56.0,29.95,WSW,243,0.0,-999.0,53,-99.99,,,0.00,weatherlink.com 1.10,2013-08-14 22:13:00,
2013-08-14 15:28:00,75.1,57.0,29.95,WSW,245,2.0,-999.0,54,-99.99,,,0.00,weatherlink.com 1.10,2013-08-14 22:28:00,
2013-08-14 15:43:00,74.6,58.0,29.95,West,264,1.0,-999.0,57,-99.99,,,0.00,weatherlink.com 1.10,2013-08-14 22:43:00,
2013-08-14 15:58:00,74.4,58.0,29.95,WSW,252,1.0,-999.0,56,-99.99,,,0.00,weatherlink.com 1.10,2013-08-14 22:58:00,
2013-08-14 16:13:00,74.7,59.0,29.94,WSW,244,0.0,-999.0,58,-99.99,,,0.00,weatherlink.com 1.10,2013-08-14 23:13:00,
2013-08-14 16:28:00,74.9,59.0,29.94,WSW,257,0.0,-999.0,57,-99.99,,,0.00,weatherlink.com 1.10,2013-08-14 23:28:00,
2013-08-14 16:43:00,74.4,59.0,29.93,WSW,252,1.0,-999.0,59,-99.99,,,0.00,weatherlink.com 1.10,2013-08-14 23:43:00,
2013-08-14 16:58:00,74.4,59.0,29.93,SE,126,2.0,-999.0,59,-99.99,,,0.00,weatherlink.com 1.10,2013-08-14 23:58:00,
2013-08-14 17:13:00,72.7,59.0,29.93,WSW,239,3.0,-999.0,63,-99.99,,,0.00,weatherlink.com 1.10,2013-08-15 00:13:00,
2013-08-14 17:28:00,72.0,59.0,29.93,WSW,250,0.0,-999.0,64,-99.99,,,0.00,weatherlink.com 1.10,2013-08-15 00:28:00,
2013-08-14 17:43:00,71.5,59.0,29.93,SSW,192,0.0,-999.0,66,-99.99,,,0.00,weatherlink.com 1.10,2013-08-15 00:43:00,
2013-08-14 17:58:00,70.9,59.0,29.93,ESE,110,1.0,-999.0,66,-99.99,,,0.00,weatherlink.com 1.10,2013-08-15 00:58:00,
2013-08-14 18:13:00,68.9,60.0,29.93,ESE,105,0.0,-999.0,72,-99.99,,,0.00,weatherlink.com 1.10,2013-08-15 01:13:00,
2013-08-14 18:28:00,67.8,59.0,29.93,West,269,1.0,-999.0,74,-99.99,,,0.00,weatherlink.com 1.10,2013-08-15 01:28:00,
2013-08-14 18:43:00,66.0,59.0,29.93,West,273,1.0,-999.0,78,-99.99,,,0.00,weatherlink.com 1.10,2013-08-15 01:43:00,
2013-08-14 18:58:00,64.7,59.0,29.93,WSW,248,0.0,-999.0,82,-99.99,,,0.00,weatherlink.com 1.10,2013-08-15 01:58:00,
2013-08-14 19:13:00,64.0,59.0,29.93,SW,227,0.0,-999.0,84,-99.99,,,0.00,weatherlink.com 1.10,2013-08-15 02:13:00,
2013-08-14 19:28:00,63.5,59.0,29.93,SE,145,2.0,-999.0,84,-99.99,,,0.00,weatherlink.com 1.10,2013-08-15 02:28:00,
2013-08-14 19:43:00,63.4,59.0,29.93,SSE,153,2.0,-999.0,85,-99.99,,,0.00,weatherlink.com 1.10,2013-08-15 02:43:00,
2013-08-14 19:58:00,62.9,59.0,29.93,South,171,1.0,-999.0,86,-99.99,,,0.00,weatherlink.com 1.10,2013-08-15 02:58:00,
2013-08-14 20:13:00,62.6,59.0,29.92,SE,143,0.0,-999.0,87,-99.99,,,0.00,weatherlink.com 1.10,2013-08-15 03:13:00,
2013-08-14 20:28:00,62.1,59.0,29.92,SW,224,0.0,-999.0,88,-99.99,,,0.00,weatherlink.com 1.10,2013-08-15 03:28:00,
2013-08-14 20:43:00,61.8,59.0,29.92,SW,224,0.0,-999.0,89,-99.99,,,0.00,weatherlink.com 1.10,2013-08-15 03:43:00,
2013-08-14 20:58:00,61.6,58.0,29.92,SW,224,0.0,-999.0,89,-99.99,,,0.00,weatherlink.com 1.10,2013-08-15 03:58:00,
2013-08-14 21:13:00,61.6,59.0,29.93,SW,224,0.0,-999.0,90,-99.99,,,0.00,weatherlink.com 1.10,2013-08-15 04:13:00,
2013-08-14 21:28:00,62.1,59.0,29.93,East,88,0.0,-999.0,90,-99.99,,,0.00,weatherlink.com 1.10,2013-08-15 04:28:00,
2013-08-14 21:43:00,62.3,59.0,29.93,SSW,196,0.0,-999.0,89,-99.99,,,0.00,weatherlink.com 1.10,2013-08-15 04:43:00,
2013-08-14 21:58:00,62.3,59.0,29.93,SSW,209,0.0,-999.0,89,-99.99,,,0.00,weatherlink.com 1.10,2013-08-15 04:58:00,
2013-08-14 22:14:00,62.3,59.0,29.93,South,190,0.0,-999.0,90,-99.99,,,0.00,weatherlink.com 1.10,2013-08-15 05:14:00,
2013-08-14 22:29:00,62.3,59.0,29.93,SE,128,4.0,-999.0,90,-99.99,,,0.00,weatherlink.com 1.10,2013-08-15 05:29:00,
2013-08-14 22:44:00,62.3,59.0,29.93,East,88,1.0,-999.0,90,-99.99,,,0.00,weatherlink.com 1.10,2013-08-15 05:44:00,
2013-08-14 22:59:00,62.3,59.0,29.93,South,188,0.0,-999.0,89,-99.99,,,0.00,weatherlink.com 1.10,2013-08-15 05:59:00,
2013-08-14 23:14:00,62.3,59.0,29.93,SSE,159,0.0,-999.0,90,-99.99,,,0.00,weatherlink.com 1.10,2013-08-15 06:14:00,
2013-08-14 23:29:00,62.4,60.0,29.93,SW,221,3.0,-999.0,90,-99.99,,,0.00,weatherlink.com 1.10,2013-08-15 06:29:00,
2013-08-14 23:44:00,62.3,59.0,29.93,WSW,257,0.0,-999.0,90,-99.99,,,0.00,weatherlink.com 1.10,2013-08-15 06:44:00,
2013-08-14 23:59:00,62.3,60.0,29.93,West,260,1.0,-999.0,91,-99.99,,,0.00,weatherlink.com 1.10,2013-08-15 06:59:00,